createdAt,value
2022-09-15T00:01:00.855Z,42.47
2022-09-15T00:03:28.539Z,41.03
2022-09-15T00:05:55.885Z,39.67
2022-09-15T00:08:23.308Z,39.70
2022-09-15T00:11:03.980Z,38.13
2022-09-15T00:13:30.757Z,37.72
2022-09-15T00:15:57.517Z,37.05
2022-09-15T00:18:24.763Z,35.63
2022-09-15T00:20:52.120Z,34.80
2022-09-15T00:23:18.970Z,33.90
2022-09-15T00:25:48.268Z,31.75
2022-09-15T00:28:16.600Z,32.55
2022-09-15T00:30:48.887Z,30.67
2022-09-15T00:33:17.155Z,29.50
2022-09-15T00:35:45.717Z,29.80
2022-09-15T00:38:13.378Z,29.30
2022-09-15T00:40:44.357Z,28.65
2022-09-15T00:43:11.448Z,27.13
2022-09-15T00:45:38.641Z,27.02
2022-09-15T00:48:06.761Z,25.77
2022-09-15T00:50:34.232Z,25.58
2022-09-15T00:53:03.253Z,25.55
2022-09-15T00:55:44.887Z,23.08
2022-09-15T00:58:19.048Z,23.90
2022-09-15T01:00:51.203Z,23.40
2022-09-15T01:03:18.004Z,22.35
2022-09-15T01:05:48.416Z,22.27
2022-09-15T01:08:19.182Z,21.48
2022-09-15T01:10:46.566Z,21.13
2022-09-15T01:13:14.754Z,20.63
2022-09-15T01:16:09.865Z,19.85
2022-09-15T01:19:01.365Z,20.02
2022-09-15T01:22:21.915Z,18.98
2022-09-15T01:25:20.587Z,18.13
2022-09-15T01:27:52.291Z,17.75
2022-09-15T01:30:25.934Z,17.50
2022-09-15T01:33:13.283Z,16.45
2022-09-15T01:35:42.928Z,16.35
2022-09-15T01:38:48.361Z,16.15
2022-09-15T01:41:17.379Z,15.52
2022-09-15T01:44:02.191Z,14.70
2022-09-15T01:46:33.052Z,14.90
2022-09-15T01:49:01.286Z,13.55
2022-09-15T01:51:28.435Z,14.25
2022-09-15T01:53:56.024Z,13.13
2022-09-15T01:56:22.882Z,12.00
2022-09-15T01:58:51.216Z,11.98
2022-09-15T02:01:50.247Z,11.20
2022-09-15T02:04:32.118Z,11.35
2022-09-15T02:07:07.362Z,10.63
2022-09-15T02:09:51.346Z,11.00
2022-09-15T02:12:29.131Z,9.88
2022-09-15T02:14:58.156Z,10.00
2022-09-15T02:17:26.753Z,10.13
2022-09-15T02:19:57.609Z,9.13
2022-09-15T02:22:32.737Z,8.30
2022-09-15T02:25:09.520Z,9.20
2022-09-15T02:27:40.139Z,8.43
2022-09-15T02:30:11.745Z,8.82
2022-09-15T02:32:47.271Z,8.52
2022-09-15T02:35:15.132Z,7.75
2022-09-15T02:37:42.267Z,7.20
2022-09-15T02:40:09.643Z,7.80
2022-09-15T02:42:36.625Z,7.15
2022-09-15T02:45:04.001Z,7.40
2022-09-15T02:47:32.060Z,7.25
2022-09-15T02:49:58.958Z,6.55
2022-09-15T02:52:26.163Z,6.80
2022-09-15T02:54:54.358Z,6.82
2022-09-15T02:57:21.147Z,6.57
2022-09-15T03:00:06.782Z,6.22
2022-09-15T03:02:33.761Z,6.85
2022-09-15T03:05:00.521Z,6.55
2022-09-15T03:07:28.431Z,6.03
2022-09-15T03:09:55.273Z,5.75
2022-09-15T03:12:22.024Z,5.57
2022-09-15T03:14:48.791Z,5.65
2022-09-15T03:17:15.520Z,6.00
2022-09-15T03:19:42.416Z,5.18
2022-09-15T03:22:10.365Z,5.22
2022-09-15T03:24:42.292Z,4.68
2022-09-15T03:27:09.344Z,4.90
2022-09-15T03:29:36.169Z,5.03
2022-09-15T03:32:03.091Z,4.60
2022-09-15T03:34:29.846Z,4.70
2022-09-15T03:36:56.638Z,4.45
2022-09-15T03:39:24.347Z,3.88
2022-09-15T03:41:51.137Z,4.30
2022-09-15T03:44:17.931Z,4.40
2022-09-15T03:46:45.282Z,4.30
2022-09-15T03:49:12.109Z,4.43
2022-09-15T03:51:38.873Z,3.55
2022-09-15T03:54:05.687Z,3.88
2022-09-15T03:56:33.094Z,3.65
2022-09-15T03:59:05.579Z,4.07
2022-09-15T04:01:33.016Z,3.63
2022-09-15T04:03:59.922Z,3.65
2022-09-15T04:06:27.528Z,3.50
2022-09-15T04:08:55.034Z,3.35
2022-09-15T04:11:22.725Z,3.40
2022-09-15T04:13:49.761Z,3.25
2022-09-15T04:16:19.211Z,3.20
2022-09-15T04:18:46.220Z,3.35
2022-09-15T04:21:15.703Z,2.78
2022-09-15T04:23:43.096Z,3.17
2022-09-15T04:26:31.330Z,3.38
2022-09-15T04:29:03.043Z,2.95
2022-09-15T04:31:31.741Z,2.97
2022-09-15T04:34:01.585Z,2.97
2022-09-15T04:36:30.846Z,2.90
2022-09-15T04:38:58.278Z,3.05
2022-09-15T04:41:26.291Z,2.88
2022-09-15T04:43:53.117Z,2.80
2022-09-15T04:46:20.249Z,2.78
2022-09-15T04:48:48.720Z,2.80
2022-09-15T04:51:18.899Z,2.95
2022-09-15T04:53:46.564Z,2.55
2022-09-15T04:56:15.692Z,2.58
2022-09-15T04:58:44.636Z,78.75
2022-09-15T05:01:14.405Z,55.92
2022-09-15T05:03:41.818Z,40.95
2022-09-15T05:06:11.775Z,37.75
2022-09-15T05:08:39.006Z,36.97
2022-09-15T05:11:08.000Z,32.22
2022-09-15T05:13:36.092Z,27.77
2022-09-15T05:16:20.565Z,24.25
2022-09-15T05:18:48.954Z,20.58
2022-09-15T05:21:17.415Z,19.17
2022-09-15T05:23:44.684Z,16.02
2022-09-15T05:26:13.791Z,15.50
2022-09-15T05:28:40.632Z,14.48
2022-09-15T05:31:27.903Z,14.40
2022-09-15T05:33:55.006Z,13.27
2022-09-15T05:36:25.214Z,12.43
2022-09-15T05:38:58.746Z,12.52
2022-09-15T05:41:26.806Z,11.32
2022-09-15T05:43:55.221Z,10.98
2022-09-15T05:46:22.504Z,10.80
2022-09-15T05:48:49.355Z,10.40
2022-09-15T05:51:16.192Z,10.02
2022-09-15T05:53:43.048Z,9.13
2022-09-15T05:56:14.176Z,9.52
2022-09-15T05:58:42.256Z,9.57
2022-09-15T06:01:14.112Z,26.08
2022-09-15T06:03:41.005Z,79.95
2022-09-15T06:06:08.020Z,60.45
2022-09-15T06:08:37.172Z,57.15
2022-09-15T06:11:15.655Z,50.33
2022-09-15T06:13:43.423Z,42.58
2022-09-15T06:16:12.822Z,36.90
2022-09-15T06:18:40.626Z,33.00
2022-09-15T06:21:19.690Z,28.27
2022-09-15T06:23:50.642Z,27.08
2022-09-15T06:26:18.947Z,25.60
2022-09-15T06:28:53.416Z,24.30
2022-09-15T06:31:21.129Z,23.75
2022-09-15T06:33:51.325Z,22.70
2022-09-15T06:36:20.088Z,22.50
2022-09-15T06:38:47.372Z,21.08
2022-09-15T06:41:14.655Z,24.02
2022-09-15T06:43:42.173Z,24.50
2022-09-15T06:46:11.525Z,21.55
2022-09-15T06:48:39.989Z,19.55
2022-09-15T06:51:08.872Z,17.70
2022-09-15T06:53:38.145Z,16.73
2022-09-15T06:56:06.700Z,16.20
2022-09-15T06:58:38.076Z,14.40
2022-09-15T07:01:09.789Z,14.73
2022-09-15T07:03:38.386Z,13.32
2022-09-15T07:06:06.046Z,12.47
2022-09-15T07:08:32.935Z,14.02
2022-09-15T07:10:59.719Z,23.48
2022-09-15T07:13:26.951Z,22.02
2022-09-15T07:15:59.125Z,18.33
2022-09-15T07:18:26.340Z,16.13
2022-09-15T07:20:58.173Z,13.88
2022-09-15T07:23:24.936Z,12.60
2022-09-15T07:25:51.682Z,12.48
2022-09-15T07:28:19.133Z,11.38
2022-09-15T07:30:50.484Z,10.82
2022-09-15T07:33:17.437Z,9.75
2022-09-15T07:35:44.584Z,9.70
2022-09-15T07:38:11.792Z,9.73
2022-09-15T07:40:38.690Z,9.63
2022-09-15T07:43:06.405Z,9.23
2022-09-15T07:45:33.778Z,9.00
2022-09-15T07:48:00.682Z,8.57
2022-09-15T07:50:27.448Z,8.50
2022-09-15T07:52:57.572Z,7.75
2022-09-15T07:55:24.795Z,7.95
2022-09-15T07:58:01.503Z,7.45
2022-09-15T08:00:28.413Z,6.95
2022-09-15T08:02:55.849Z,6.72
2022-09-15T08:05:27.991Z,6.53
2022-09-15T08:07:55.844Z,8.65
2022-09-15T08:10:25.999Z,27.48
2022-09-15T08:12:53.256Z,25.75
2022-09-15T08:15:20.798Z,19.55
2022-09-15T08:17:47.759Z,15.18
2022-09-15T08:20:14.582Z,11.90
2022-09-15T08:22:42.071Z,11.40
2022-09-15T08:25:09.321Z,10.20
2022-09-15T08:27:36.114Z,50.97
2022-09-15T08:30:03.022Z,58.13
2022-09-15T08:32:29.966Z,54.85
2022-09-15T08:34:56.742Z,40.60
2022-09-15T08:37:23.545Z,33.72
2022-09-15T08:39:50.464Z,30.70
2022-09-15T08:42:18.937Z,25.77
2022-09-15T08:44:56.456Z,22.98
2022-09-15T08:47:34.163Z,21.73
2022-09-15T08:50:16.065Z,20.67
2022-09-15T08:53:16.975Z,18.45
2022-09-15T08:55:50.378Z,16.73
2022-09-15T08:58:19.237Z,15.85
2022-09-15T09:00:48.590Z,16.30
2022-09-15T09:03:28.434Z,16.27
2022-09-15T09:06:04.279Z,14.95
2022-09-15T09:08:58.332Z,14.30
2022-09-15T09:12:00.220Z,14.15
2022-09-15T09:14:45.537Z,13.20
2022-09-15T09:17:33.470Z,12.00
2022-09-15T09:20:19.162Z,122.80
2022-09-15T09:22:47.298Z,112.50
2022-09-15T09:25:27.124Z,91.07
2022-09-15T09:27:56.583Z,61.80
2022-09-15T09:30:25.508Z,47.65
2022-09-15T09:33:30.390Z,40.08
2022-09-15T09:36:01.172Z,36.35
2022-09-15T09:38:32.294Z,31.13
2022-09-15T09:41:02.323Z,31.33
2022-09-15T09:43:30.151Z,27.80
2022-09-15T09:45:57.071Z,28.30
2022-09-15T09:48:27.980Z,27.48
2022-09-15T09:50:55.307Z,27.55
2022-09-15T09:53:26.448Z,27.00
2022-09-15T09:56:17.320Z,26.52
2022-09-15T09:58:44.638Z,24.90
2022-09-15T10:01:17.440Z,24.52
2022-09-15T10:03:45.298Z,23.27
2022-09-15T10:06:22.235Z,22.80
2022-09-15T10:09:01.009Z,20.90
2022-09-15T10:11:42.385Z,20.85
2022-09-15T10:14:32.098Z,19.40
2022-09-15T10:17:17.754Z,19.23
2022-09-15T10:19:49.805Z,17.13
2022-09-15T10:22:36.167Z,17.55
2022-09-15T10:25:12.265Z,22.38
2022-09-15T10:27:39.286Z,70.72
2022-09-15T10:30:17.072Z,64.43
2022-09-15T10:32:44.176Z,34.92
2022-09-15T10:35:13.297Z,25.85
2022-09-15T10:37:52.005Z,23.20
2022-09-15T10:40:46.677Z,21.05
2022-09-15T10:43:41.312Z,21.10
2022-09-15T10:46:18.222Z,21.02
2022-09-15T10:49:15.850Z,19.25
2022-09-15T10:52:18.081Z,19.35
2022-09-15T10:54:53.485Z,18.83
2022-09-15T10:57:54.114Z,17.45
2022-09-15T11:00:24.903Z,15.95
2022-09-15T11:03:08.652Z,15.65
2022-09-15T11:05:58.708Z,14.43
2022-09-15T11:08:40.565Z,13.85
2022-09-15T11:11:28.406Z,12.98
2022-09-15T11:13:58.893Z,13.55
2022-09-15T11:16:50.707Z,12.50
2022-09-15T11:19:48.326Z,11.95
2022-09-15T11:22:26.901Z,11.25
2022-09-15T11:25:00.272Z,11.60
2022-09-15T11:27:31.413Z,11.15
2022-09-15T11:30:14.540Z,17.30
2022-09-15T11:32:44.951Z,65.38
2022-09-15T11:35:37.849Z,68.78
2022-09-15T11:38:32.087Z,53.10
2022-09-15T11:41:16.082Z,47.05
2022-09-15T11:43:53.059Z,37.67
2022-09-15T11:46:31.874Z,30.58
2022-09-15T11:49:08.753Z,27.60
2022-09-15T11:54:21.331Z,22.88
2022-09-15T11:56:48.593Z,23.02
2022-09-15T11:59:22.861Z,20.95
2022-09-15T12:02:16.395Z,16.33
2022-09-15T12:05:15.143Z,13.60
2022-09-15T12:10:44.168Z,10.85
2022-09-15T12:13:23.063Z,9.50
2022-09-15T12:15:50.945Z,9.75
2022-09-15T12:18:39.839Z,8.73
2022-09-15T12:21:23.897Z,9.00
2022-09-15T12:24:03.345Z,12.90
2022-09-15T12:26:32.831Z,12.43
2022-09-15T12:29:05.898Z,10.60
2022-09-15T12:31:38.066Z,9.75
2022-09-15T12:34:26.422Z,8.88
2022-09-15T12:36:54.546Z,8.32
2022-09-15T12:39:39.879Z,7.32
2022-09-15T12:42:15.195Z,7.28
2022-09-15T12:44:48.394Z,7.28
2022-09-15T12:47:34.607Z,6.93
2022-09-15T12:50:04.698Z,6.70
2022-09-15T12:52:31.737Z,6.47
2022-09-15T12:55:03.576Z,6.47
2022-09-15T12:57:34.071Z,6.60
2022-09-15T13:00:32.474Z,6.45
2022-09-15T13:03:00.460Z,6.03
2022-09-15T13:05:42.463Z,5.68
2022-09-15T13:08:18.966Z,5.35
2022-09-15T13:11:02.462Z,5.32
2022-09-15T13:13:38.403Z,5.10
2022-09-15T13:16:08.542Z,4.88
2022-09-15T13:18:35.330Z,5.03
2022-09-15T13:21:05.394Z,5.20
2022-09-15T13:23:37.092Z,4.30
2022-09-15T13:26:06.874Z,4.38
2022-09-15T13:28:34.159Z,4.55
2022-09-15T13:31:37.686Z,4.25
2022-09-15T13:38:16.908Z,3.92
2022-09-15T13:40:59.828Z,3.70
2022-09-15T13:43:41.202Z,3.97
2022-09-15T13:46:23.289Z,3.33
2022-09-15T13:49:23.941Z,3.33
2022-09-15T13:52:01.798Z,3.50
2022-09-15T13:54:28.708Z,3.80
2022-09-15T13:57:00.093Z,21.55
2022-09-15T13:59:32.285Z,19.90
2022-09-15T14:04:30.667Z,12.25
2022-09-15T14:07:01.086Z,9.48
2022-09-15T14:09:31.847Z,7.93
2022-09-15T14:12:03.146Z,7.03
2022-09-15T14:14:29.860Z,6.60
2022-09-15T14:16:57.227Z,6.05
2022-09-15T14:19:31.259Z,6.15
2022-09-15T14:21:58.809Z,6.00
2022-09-15T14:24:28.989Z,6.00
2022-09-15T14:26:57.266Z,5.65
2022-09-15T14:29:26.871Z,5.63
2022-09-15T14:31:54.679Z,5.03
2022-09-15T14:34:25.363Z,4.90
2022-09-15T14:37:02.594Z,4.50
2022-09-15T14:39:29.992Z,4.47
2022-09-15T14:41:56.853Z,4.65
2022-09-15T14:47:28.605Z,4.15
2022-09-15T14:50:19.316Z,4.43
2022-09-15T14:53:02.998Z,3.63
2022-09-15T14:55:35.978Z,3.60
2022-09-15T14:58:16.624Z,3.60
2022-09-15T15:01:07.943Z,4.63
2022-09-15T15:03:45.163Z,63.63
2022-09-15T15:06:35.105Z,57.17
2022-09-15T15:09:21.607Z,43.25
2022-09-15T15:11:55.173Z,34.95
2022-09-15T15:16:57.065Z,28.67
2022-09-15T15:19:41.610Z,26.38
2022-09-15T15:22:15.418Z,24.35
2022-09-15T15:24:45.825Z,22.33
2022-09-15T15:27:34.663Z,21.05
2022-09-15T15:30:26.521Z,19.73
2022-09-15T15:32:53.998Z,19.00
2022-09-15T15:35:21.249Z,17.23
2022-09-15T15:37:48.364Z,16.88
2022-09-15T15:40:18.508Z,15.20
2022-09-15T15:42:59.408Z,15.18
2022-09-15T15:45:31.288Z,14.38
2022-09-15T15:47:58.457Z,14.52
2022-09-15T15:50:28.189Z,12.57
2022-09-15T15:52:57.984Z,12.43
2022-09-15T15:58:03.865Z,12.43
2022-09-15T16:00:40.850Z,11.02
2022-09-15T16:03:09.237Z,11.40
2022-09-15T16:05:36.310Z,10.65
2022-09-15T16:08:22.891Z,10.68
2022-09-15T16:10:50.868Z,9.63
2022-09-15T16:13:19.662Z,9.75
2022-09-15T16:15:46.741Z,8.77
2022-09-15T16:18:14.108Z,9.20
2022-09-15T16:20:41.649Z,9.30
2022-09-15T16:23:14.357Z,8.32
2022-09-15T16:25:49.792Z,7.88
2022-09-15T16:28:17.354Z,8.45
2022-09-15T16:30:44.590Z,7.72
2022-09-15T16:33:15.540Z,7.32
2022-09-15T16:35:55.573Z,7.00
2022-09-15T16:38:25.513Z,6.10
2022-09-15T16:40:52.319Z,6.97
2022-09-15T16:43:21.566Z,6.53
2022-09-15T16:45:49.160Z,6.38
2022-09-15T16:48:16.005Z,11.20
2022-09-15T16:51:01.230Z,11.23
2022-09-15T16:53:33.079Z,10.77
2022-09-15T16:55:59.893Z,9.77
2022-09-15T16:58:26.753Z,9.50
2022-09-15T17:00:53.657Z,8.65
2022-09-15T17:03:23.818Z,8.43
2022-09-15T17:05:55.624Z,7.97
2022-09-15T17:08:24.529Z,7.28
2022-09-15T17:10:52.949Z,7.40
2022-09-15T17:13:27.906Z,6.80
2022-09-15T17:15:57.878Z,6.72
2022-09-15T17:18:24.963Z,7.32
2022-09-15T17:20:52.023Z,8.13
2022-09-15T17:23:25.820Z,9.45
2022-09-15T17:25:58.462Z,11.50
2022-09-15T17:28:29.992Z,15.25
2022-09-15T17:31:16.994Z,14.98
2022-09-15T17:33:44.586Z,15.73
2022-09-15T17:36:11.696Z,14.52
2022-09-15T17:38:42.588Z,16.38
2022-09-15T17:41:20.110Z,17.42
2022-09-15T17:43:47.152Z,52.58
2022-09-15T17:46:14.009Z,51.75
2022-09-15T17:48:40.885Z,42.78
2022-09-15T17:51:09.750Z,39.35
2022-09-15T17:53:37.091Z,39.85
2022-09-15T17:56:03.874Z,36.95
2022-09-15T17:58:31.875Z,36.75
2022-09-15T18:00:59.034Z,35.10
2022-09-15T18:03:34.652Z,32.97
2022-09-15T18:06:05.195Z,30.98
2022-09-15T18:08:33.167Z,29.40
2022-09-15T18:11:00.792Z,28.67
2022-09-15T18:13:29.691Z,26.58
2022-09-15T18:15:56.879Z,25.00
2022-09-15T18:18:26.703Z,24.17
2022-09-15T18:20:54.781Z,23.00
2022-09-15T18:23:23.906Z,20.88
2022-09-15T18:25:51.145Z,20.85
2022-09-15T18:28:18.557Z,20.92
2022-09-15T18:30:49.843Z,18.23
2022-09-15T18:33:24.781Z,16.15
2022-09-15T18:35:54.238Z,16.23
2022-09-15T18:38:21.769Z,15.80
2022-09-15T18:40:53.153Z,15.88
2022-09-15T18:43:21.071Z,13.90
2022-09-15T18:45:48.308Z,14.02
2022-09-15T18:48:15.536Z,13.25
2022-09-15T18:50:44.214Z,12.30
2022-09-15T18:53:11.576Z,12.30
2022-09-15T18:55:41.562Z,11.52
2022-09-15T18:58:08.917Z,10.90
2022-09-15T19:00:35.849Z,44.45
2022-09-15T19:03:03.937Z,51.28
2022-09-15T19:05:31.130Z,49.05
2022-09-15T19:07:57.983Z,42.78
2022-09-15T19:10:26.829Z,41.13
2022-09-15T19:12:54.227Z,34.90
2022-09-15T19:15:23.765Z,30.58
2022-09-15T19:17:50.761Z,30.08
2022-09-15T19:20:17.827Z,28.15
2022-09-15T19:22:44.618Z,25.65
2022-09-15T19:25:11.760Z,24.35
2022-09-15T19:27:39.591Z,52.70
2022-09-15T19:30:08.306Z,111.13
2022-09-15T19:32:35.166Z,98.00
2022-09-15T19:35:02.481Z,89.25
2022-09-15T19:37:30.421Z,80.35
2022-09-15T19:39:57.327Z,73.30
2022-09-15T19:42:24.106Z,65.85
2022-09-15T19:44:50.884Z,93.78
2022-09-15T19:47:17.717Z,170.30
2022-09-15T19:49:44.518Z,161.85
2022-09-15T19:52:12.774Z,140.50
2022-09-15T19:54:39.634Z,127.43
2022-09-15T19:57:06.474Z,116.38
2022-09-15T19:59:33.500Z,108.00
2022-09-15T20:02:01.185Z,99.55
2022-09-15T20:04:28.718Z,95.35
2022-09-15T20:06:55.490Z,88.22
2022-09-15T20:09:22.556Z,82.15
2022-09-15T20:11:49.345Z,78.47
2022-09-15T20:14:16.421Z,76.82
2022-09-15T20:16:43.249Z,69.30
2022-09-15T20:19:10.232Z,66.53
2022-09-15T20:21:54.017Z,65.22
2022-09-15T20:24:21.379Z,69.35
2022-09-15T20:26:48.450Z,53.75
2022-09-15T20:29:15.267Z,48.53
2022-09-15T20:31:42.540Z,48.97
2022-09-15T20:34:09.383Z,48.03
2022-09-15T20:36:38.362Z,46.50
2022-09-15T20:39:12.781Z,45.28
2022-09-15T20:41:40.640Z,44.60
2022-09-15T20:44:10.311Z,43.40
2022-09-15T20:46:37.239Z,42.35
2022-09-15T20:49:04.710Z,106.35
2022-09-15T20:51:33.473Z,121.05
2022-09-15T20:54:01.944Z,110.25
2022-09-15T20:56:30.035Z,95.18
2022-09-15T20:58:58.720Z,85.50
2022-09-15T21:01:34.153Z,77.87
2022-09-15T21:04:01.291Z,70.90
2022-09-15T21:06:28.627Z,67.53
2022-09-15T21:08:56.604Z,63.42
2022-09-15T21:11:26.301Z,62.50
2022-09-15T21:13:53.638Z,57.13
2022-09-15T21:16:22.665Z,54.22
2022-09-15T21:18:50.828Z,52.00
2022-09-15T21:21:20.417Z,50.83
2022-09-15T21:26:19.789Z,45.20
2022-09-15T21:28:46.967Z,44.10
2022-09-15T21:31:16.449Z,43.13
2022-09-15T21:33:44.139Z,43.35
2022-09-15T21:36:21.349Z,46.45
2022-09-15T21:38:48.749Z,85.75
2022-09-15T21:41:17.646Z,74.70
2022-09-15T21:43:46.541Z,67.30
2022-09-15T21:46:15.411Z,61.88
2022-09-15T21:48:42.697Z,55.80
2022-09-15T21:51:11.675Z,53.47
2022-09-15T21:53:38.860Z,50.58
2022-09-15T21:56:08.518Z,45.72
2022-09-15T21:58:42.460Z,43.58
2022-09-15T22:01:14.289Z,40.90
2022-09-15T22:03:42.369Z,39.70
2022-09-15T22:06:13.162Z,38.47
2022-09-15T22:08:40.698Z,36.75
2022-09-15T22:11:08.325Z,35.28
2022-09-15T22:13:40.878Z,33.13
2022-09-15T22:16:10.955Z,32.67
2022-09-15T22:18:39.079Z,30.60
2022-09-15T22:21:12.003Z,28.75
2022-09-15T22:23:39.495Z,27.58
2022-09-15T22:26:15.805Z,28.10
2022-09-15T22:28:43.053Z,26.92
2022-09-15T22:31:12.384Z,25.98
2022-09-15T22:33:42.418Z,25.38
2022-09-15T22:36:31.367Z,25.20
2022-09-15T22:39:06.012Z,23.17
2022-09-15T22:41:35.281Z,23.08
2022-09-15T22:44:02.643Z,21.48
2022-09-15T22:46:29.463Z,99.15
2022-09-15T22:48:56.252Z,102.43
2022-09-15T22:51:23.109Z,90.50
2022-09-15T22:53:53.856Z,79.28
2022-09-15T22:56:20.847Z,68.38
2022-09-15T22:58:49.346Z,62.50
2022-09-15T23:01:18.276Z,57.08
2022-09-15T23:03:47.623Z,53.42
2022-09-15T23:06:14.559Z,51.28
2022-09-15T23:08:41.341Z,49.80
2022-09-15T23:11:14.313Z,46.13
2022-09-15T23:13:41.706Z,43.38
2022-09-15T23:16:09.268Z,41.85
2022-09-15T23:18:36.543Z,39.95
2022-09-15T23:23:39.102Z,37.17
2022-09-15T23:26:07.776Z,37.63
2022-09-15T23:28:34.755Z,35.13
2022-09-15T23:31:01.554Z,34.38
2022-09-15T23:33:31.148Z,31.60
2022-09-15T23:36:02.175Z,30.70
2022-09-15T23:40:56.159Z,28.83
2022-09-15T23:43:23.091Z,28.65
2022-09-15T23:45:51.223Z,26.48
2022-09-15T23:48:18.088Z,25.60
2022-09-15T23:50:44.903Z,24.58
2022-09-15T23:53:11.817Z,23.08
2022-09-15T23:55:38.591Z,22.00
